Time;durP1;ratioP1;P1;durP2;ratioP2;P2;SDS_P1;SDS_P2;PMS_P1;PMS_P2;Temp;Humidity;BMP_temperature;BMP_pressure;BME280_temperature;BME280_humidity;BME280_pressure;Samples;Min_cycle;Max_cycle;Signal;HPM_P1;HPM_P2
2021/10/28 00:12:53;;;;;;;20.27;18.00;;;13.00;99.90;;;;;;4983366;28;20324;-65
2021/10/28 00:15:28;;;;;;;19.17;17.13;;;12.90;99.90;;;;;;4970628;28;20325;-64
2021/10/28 00:18:07;;;;;;;20.33;17.17;;;12.90;99.90;;;;;;4977635;28;20636;-64
2021/10/28 00:20:36;;;;;;;19.53;17.53;;;13.00;99.90;;;;;;4978607;28;20253;-64
2021/10/28 00:23:06;;;;;;;21.30;18.20;;;12.90;99.90;;;;;;4975922;28;20238;-64
2021/10/28 00:25:36;;;;;;;21.87;18.07;;;12.90;99.90;;;;;;4973863;28;20267;-64
2021/10/28 00:28:06;;;;;;;24.20;19.30;;;12.70;99.90;;;;;;4974021;28;20238;-64
2021/10/28 00:30:35;;;;;;;22.73;19.33;;;12.70;99.90;;;;;;4967239;28;20309;-65
2021/10/28 00:33:03;;;;;;;22.20;19.30;;;12.70;99.90;;;;;;4977789;28;20233;-64
2021/10/28 00:35:31;;;;;;;23.40;20.43;;;12.60;99.90;;;;;;4972236;28;20315;-65
2021/10/28 00:37:59;;;;;;;23.03;20.53;;;12.60;99.90;;;;;;4976218;28;20234;-65
2021/10/28 00:40:27;;;;;;;23.20;20.13;;;12.50;99.90;;;;;;4974354;28;20251;-65
2021/10/28 00:42:56;;;;;;;26.43;22.63;;;12.50;99.90;;;;;;4967108;28;20234;-64
2021/10/28 00:45:26;;;;;;;25.83;21.10;;;12.40;99.90;;;;;;4981116;28;20286;-65
2021/10/28 00:47:54;;;;;;;25.43;22.47;;;12.40;99.90;;;;;;4970312;28;20259;-65
2021/10/28 00:50:22;;;;;;;28.33;23.13;;;12.40;99.90;;;;;;4976882;28;20230;-64
2021/10/28 00:52:51;;;;;;;27.40;22.57;;;12.40;99.90;;;;;;4975508;28;20586;-65
2021/10/28 00:55:20;;;;;;;28.77;24.43;;;12.40;99.90;;;;;;4971386;28;20235;-65
2021/10/28 00:57:49;;;;;;;27.30;22.27;;;12.30;99.90;;;;;;4971451;28;20638;-65
2021/10/28 01:00:21;;;;;;;30.37;24.50;;;12.40;99.90;;;;;;4974513;28;20367;-65
2021/10/28 01:02:51;;;;;;;28.07;24.20;;;12.40;99.90;;;;;;4979600;28;20238;-65
2021/10/28 01:05:19;;;;;;;28.80;23.93;;;12.40;99.90;;;;;;4975033;28;20327;-64
2021/10/28 01:07:48;;;;;;;26.53;23.63;;;12.40;99.90;;;;;;4977539;28;20249;-64
2021/10/28 01:10:16;;;;;;;29.37;24.33;;;12.40;99.90;;;;;;4976563;28;20236;-65
2021/10/28 01:12:46;;;;;;;28.20;24.70;;;12.30;99.90;;;;;;4972455;28;20242;-65
2021/10/28 01:15:15;;;;;;;29.93;25.30;;;12.30;99.90;;;;;;4971278;28;20259;-64
2021/10/28 01:17:44;;;;;;;27.73;23.27;;;12.20;99.90;;;;;;4969497;28;20232;-64
2021/10/28 01:20:14;;;;;;;27.00;24.10;;;12.20;99.90;;;;;;4976215;28;20708;-65
2021/10/28 01:22:43;;;;;;;28.07;24.33;;;12.20;99.90;;;;;;4971137;28;20252;-65
2021/10/28 01:25:13;;;;;;;30.03;24.07;;;12.20;99.90;;;;;;4973913;28;20244;-65
2021/10/28 01:27:41;;;;;;;26.10;23.00;;;12.20;99.90;;;;;;4974207;28;20228;-64
2021/10/28 01:30:10;;;;;;;25.50;22.00;;;12.20;99.90;;;;;;4968725;28;20275;-65
2021/10/28 01:32:38;;;;;;;26.47;22.93;;;12.20;99.90;;;;;;4973385;28;20229;-65
2021/10/28 01:35:09;;;;;;;27.17;22.90;;;12.20;99.90;;;;;;4970569;28;20715;-65
2021/10/28 01:37:43;;;;;;;24.80;22.03;;;12.20;99.90;;;;;;4970006;28;20611;-64
2021/10/28 01:40:12;;;;;;;25.03;22.40;;;12.20;99.90;;;;;;4970321;28;20257;-64
2021/10/28 01:42:47;;;;;;;26.23;22.87;;;12.20;99.90;;;;;;4974643;28;20261;-65
2021/10/28 01:45:15;;;;;;;26.87;23.47;;;12.20;99.90;;;;;;4971428;28;20252;-65
2021/10/28 01:47:43;;;;;;;25.60;22.63;;;12.20;99.90;;;;;;4970194;28;20344;-65
2021/10/28 01:50:12;;;;;;;25.63;22.67;;;12.20;99.90;;;;;;4973992;28;20235;-64
2021/10/28 01:52:42;;;;;;;25.87;21.63;;;12.20;99.90;;;;;;4971122;28;20287;-65
2021/10/28 01:55:12;;;;;;;24.93;21.50;;;12.20;99.90;;;;;;4971612;28;20312;-65
2021/10/28 01:57:42;;;;;;;25.73;22.63;;;12.30;99.90;;;;;;4973613;28;20234;-65
2021/10/28 02:00:16;;;;;;;27.40;23.30;;;12.20;99.90;;;;;;4969770;28;20783;-65
2021/10/28 02:02:45;;;;;;;25.57;22.83;;;12.20;99.90;;;;;;4971211;28;20251;-64
2021/10/28 02:05:15;;;;;;;29.63;22.73;;;12.20;99.90;;;;;;4971073;28;20233;-65
2021/10/28 02:07:45;;;;;;;30.23;23.27;;;12.20;99.90;;;;;;4975059;28;20236;-65
2021/10/28 02:10:14;;;;;;;30.10;23.00;;;12.20;99.90;;;;;;4975973;28;20243;-64
2021/10/28 02:12:46;;;;;;;27.37;23.60;;;12.20;99.90;;;;;;4973679;28;20840;-64
2021/10/28 02:15:17;;;;;;;27.77;22.70;;;12.20;99.90;;;;;;4973590;28;20240;-65
2021/10/28 02:17:47;;;;;;;26.43;22.80;;;12.20;99.90;;;;;;4977681;28;20346;-65
2021/10/28 02:20:16;;;;;;;24.33;21.13;;;12.20;99.90;;;;;;4974995;28;20229;-65
2021/10/28 02:22:47;;;;;;;24.63;21.97;;;12.20;99.90;;;;;;4966583;28;20240;-65
2021/10/28 02:25:16;;;;;;;24.10;20.83;;;12.20;99.90;;;;;;4969793;28;20256;-64
2021/10/28 02:27:52;;;;;;;25.13;21.63;;;12.20;99.90;;;;;;4974945;28;20711;-64
2021/10/28 02:30:21;;;;;;;25.13;21.60;;;12.20;99.90;;;;;;4976973;28;20238;-65
2021/10/28 02:32:50;;;;;;;23.70;21.10;;;12.10;99.90;;;;;;4967777;28;20261;-65
2021/10/28 02:35:18;;;;;;;25.00;21.17;;;12.10;99.90;;;;;;4973423;28;20607;-64
2021/10/28 02:37:48;;;;;;;23.60;19.27;;;12.00;99.90;;;;;;4975737;28;20233;-65
2021/10/28 02:40:16;;;;;;;22.00;19.07;;;12.10;99.90;;;;;;4971783;28;20785;-65
2021/10/28 02:42:44;;;;;;;22.63;20.27;;;12.10;99.90;;;;;;4968193;28;20327;-66
2021/10/28 02:45:13;;;;;;;24.97;20.20;;;12.10;99.90;;;;;;4971024;28;20291;-65
2021/10/28 02:47:41;;;;;;;22.43;19.00;;;12.10;99.90;;;;;;4970980;28;20243;-64
2021/10/28 02:50:09;;;;;;;22.10;19.60;;;12.00;99.90;;;;;;4962022;28;20317;-64
2021/10/28 02:52:38;;;;;;;23.73;19.67;;;12.10;99.90;;;;;;4958960;28;20694;-65
2021/10/28 02:55:09;;;;;;;23.57;19.67;;;12.10;99.90;;;;;;4962173;28;20731;-64
2021/10/28 02:57:41;;;;;;;25.20;20.63;;;12.10;99.90;;;;;;4966116;28;20674;-64
2021/10/28 03:00:12;;;;;;;21.83;18.07;;;12.00;99.90;;;;;;4964653;28;20236;-64
2021/10/28 03:02:41;;;;;;;23.27;19.87;;;12.00;99.90;;;;;;4966048;28;20316;-64
2021/10/28 03:05:10;;;;;;;24.67;19.10;;;12.00;99.90;;;;;;4967221;28;20237;-65
2021/10/28 03:07:39;;;;;;;24.27;19.47;;;12.00;99.90;;;;;;4971473;28;20242;-64
2021/10/28 03:10:10;;;;;;;27.80;20.27;;;12.00;99.90;;;;;;4974817;28;20687;-65
2021/10/28 03:12:41;;;;;;;25.20;20.97;;;11.90;99.90;;;;;;4962370;28;20263;-64
2021/10/28 03:15:12;;;;;;;24.90;20.27;;;11.90;99.90;;;;;;4971549;28;20252;-65
2021/10/28 03:17:54;;;;;;;23.90;20.17;;;11.80;99.90;;;;;;4972454;28;20312;-65
2021/10/28 03:25:56;;;;;;;22.47;19.10;;;11.90;99.90;;;;;;4972918;28;20607;-65
2021/10/28 03:28:25;;;;;;;25.20;21.17;;;11.90;99.90;;;;;;4973429;28;20241;-65
2021/10/28 03:30:53;;;;;;;26.43;21.47;;;11.90;99.90;;;;;;4975569;28;20244;-64
2021/10/28 03:33:23;;;;;;;25.47;20.83;;;11.80;99.90;;;;;;4972164;28;20276;-65
2021/10/28 03:35:52;;;;;;;24.97;20.27;;;11.80;99.90;;;;;;4973008;28;21045;-65
2021/10/28 03:38:23;;;;;;;25.73;20.53;;;11.80;99.90;;;;;;4977976;28;20240;-64
2021/10/28 03:44:20;;;;;;;25.47;19.83;;;11.70;99.90;;;;;;4972179;28;20308;-64
2021/10/28 03:58:41;;;;;;;24.73;19.83;;;11.50;99.90;;;;;;4980278;28;20263;-64
2021/10/28 04:04:28;;;;;;;21.97;19.40;;;11.50;99.90;;;;;;4970923;28;20286;-65
2021/10/28 04:07:15;;;;;;;22.27;19.70;;;11.40;99.90;;;;;;4974456;28;20244;-65
2021/10/28 04:29:12;;;;;;;23.93;19.57;;;11.10;99.90;;;;;;5123997;28;20630;-65
2021/10/28 04:31:41;;;;;;;23.67;19.97;;;11.10;99.90;;;;;;5126769;27;20226;-65
2021/10/28 04:34:10;;;;;;;24.87;18.87;;;11.10;99.90;;;;;;5124061;28;20753;-64
2021/10/28 04:36:39;;;;;;;25.60;20.03;;;11.00;99.90;;;;;;5124801;28;20240;-65
2021/10/28 04:39:10;;;;;;;23.03;18.03;;;11.00;99.90;;;;;;5116382;28;20319;-65
2021/10/28 04:41:39;;;;;;;25.13;19.13;;;11.00;99.90;;;;;;5101596;27;20334;-64
2021/10/28 04:44:09;;;;;;;24.90;20.43;;;11.00;99.90;;;;;;5102661;27;20369;-64
2021/10/28 04:46:38;;;;;;;22.07;18.43;;;11.00;99.90;;;;;;5102737;27;20269;-64
2021/10/28 04:49:06;;;;;;;24.90;19.13;;;10.90;99.90;;;;;;5101914;27;20388;-64
2021/10/28 04:51:35;;;;;;;25.20;19.20;;;10.90;99.90;;;;;;5099746;27;20238;-64
2021/10/28 04:54:03;;;;;;;25.47;19.00;;;10.80;99.90;;;;;;5103731;28;20218;-64
2021/10/28 04:56:32;;;;;;;23.20;19.63;;;10.80;99.90;;;;;;5103233;28;20231;-64
2021/10/28 04:59:00;;;;;;;22.67;17.80;;;10.80;99.90;;;;;;5099863;28;20330;-63
2021/10/28 05:01:29;;;;;;;23.90;19.27;;;10.80;99.90;;;;;;5102330;28;20229;-64
2021/10/28 05:03:58;;;;;;;23.00;18.70;;;10.70;99.90;;;;;;5101697;28;20780;-64
2021/10/28 05:06:26;;;;;;;22.67;18.70;;;10.70;99.90;;;;;;5101507;28;20242;-64
2021/10/28 05:08:54;;;;;;;23.53;19.07;;;10.70;99.90;;;;;;5099415;28;20321;-64
2021/10/28 05:11:23;;;;;;;22.93;20.33;;;10.70;99.90;;;;;;5102159;28;20234;-64
2021/10/28 05:13:52;;;;;;;25.77;20.07;;;10.60;99.90;;;;;;5100982;28;20234;-64
2021/10/28 05:16:21;;;;;;;23.63;18.50;;;10.60;99.90;;;;;;5100964;27;20227;-64
2021/10/28 05:18:49;;;;;;;24.67;19.13;;;10.60;99.90;;;;;;5098029;28;20241;-64
2021/10/28 05:21:18;;;;;;;24.20;19.23;;;10.60;99.90;;;;;;5100226;28;20736;-64
2021/10/28 05:23:47;;;;;;;23.40;18.43;;;10.60;99.90;;;;;;5101660;28;20673;-64
2021/10/28 05:26:15;;;;;;;21.60;17.93;;;10.50;99.90;;;;;;5100869;28;20238;-64
2021/10/28 05:28:43;;;;;;;25.87;17.63;;;10.50;99.90;;;;;;5098208;28;20334;-64
2021/10/28 05:31:13;;;;;;;21.00;17.43;;;10.50;99.90;;;;;;5100347;28;20235;-65
2021/10/28 05:33:41;;;;;;;22.53;16.93;;;10.40;99.90;;;;;;5095190;28;20985;-64
2021/10/28 05:36:10;;;;;;;22.33;18.07;;;10.50;99.90;;;;;;5087596;28;20246;-64
2021/10/28 05:38:38;;;;;;;24.33;18.70;;;10.40;99.90;;;;;;5085363;28;20584;-64
2021/10/28 05:41:06;;;;;;;22.43;17.70;;;10.40;99.90;;;;;;5087721;28;20259;-65
2021/10/28 05:43:35;;;;;;;23.53;18.03;;;10.30;99.90;;;;;;5089328;28;20387;-65
2021/10/28 05:46:03;;;;;;;21.53;16.93;;;10.30;99.90;;;;;;5088601;28;20235;-64
2021/10/28 05:48:32;;;;;;;19.27;16.70;;;10.40;99.90;;;;;;5085263;28;20241;-64
2021/10/28 05:51:01;;;;;;;22.23;16.80;;;10.30;99.90;;;;;;5088422;28;20242;-64
2021/10/28 05:53:29;;;;;;;19.03;16.70;;;10.30;99.90;;;;;;5088223;28;20822;-64
2021/10/28 05:55:58;;;;;;;19.67;15.53;;;10.30;99.90;;;;;;5087780;28;20245;-64
2021/10/28 05:58:26;;;;;;;19.83;15.50;;;10.30;99.90;;;;;;5084225;28;20235;-64
2021/10/28 06:00:54;;;;;;;20.37;15.20;;;10.30;99.90;;;;;;5088502;28;21086;-64
2021/10/28 06:03:22;;;;;;;17.33;14.67;;;10.20;99.90;;;;;;5086401;28;20348;-64
2021/10/28 06:05:51;;;;;;;20.73;15.43;;;10.30;99.90;;;;;;5087632;28;20235;-64
2021/10/28 06:08:19;;;;;;;18.57;14.83;;;10.20;99.90;;;;;;5084286;28;20229;-64
2021/10/28 06:10:47;;;;;;;17.47;14.57;;;10.20;99.90;;;;;;5087734;28;20331;-64
2021/10/28 06:13:16;;;;;;;18.70;14.90;;;10.20;99.90;;;;;;5087262;28;20237;-64
2021/10/28 06:15:44;;;;;;;17.63;14.60;;;10.20;99.90;;;;;;5086965;28;20233;-65
2021/10/28 06:18:33;;;;;;;17.10;13.93;;;10.20;99.90;;;;;;5084893;28;20227;-64
2021/10/28 06:21:03;;;;;;;16.93;13.80;;;10.20;99.90;;;;;;5088145;28;20286;-65
2021/10/28 06:23:31;;;;;;;16.60;14.33;;;10.20;99.90;;;;;;5068156;28;20246;-64
2021/10/28 06:25:59;;;;;;;19.20;14.03;;;10.20;99.90;;;;;;5067753;28;20239;-65
2021/10/28 06:28:28;;;;;;;15.90;13.80;;;10.20;99.90;;;;;;5064355;28;20295;-64
2021/10/28 06:30:56;;;;;;;15.20;13.53;;;10.10;99.90;;;;;;5067448;28;20227;-63
2021/10/28 06:33:25;;;;;;;16.93;12.83;;;10.20;99.90;;;;;;5068161;28;21304;-64
2021/10/28 06:35:56;;;;;;;15.87;12.87;;;10.20;99.90;;;;;;5066869;28;20227;-64
2021/10/28 06:38:26;;;;;;;15.60;12.57;;;10.20;99.90;;;;;;5067019;28;20235;-64
2021/10/28 06:40:54;;;;;;;14.60;12.17;;;10.20;99.90;;;;;;5067630;28;20239;-64
2021/10/28 06:43:22;;;;;;;16.07;12.73;;;10.20;99.90;;;;;;5065441;28;21014;-64
2021/10/28 06:45:50;;;;;;;14.23;12.73;;;10.20;99.90;;;;;;5065934;28;20688;-64
2021/10/28 06:48:18;;;;;;;16.33;12.27;;;10.20;99.90;;;;;;5063122;28;20228;-64
2021/10/28 06:50:51;;;;;;;15.57;12.00;;;10.20;99.90;;;;;;5064877;28;20249;-64
2021/10/28 06:53:24;;;;;;;16.40;12.20;;;10.20;99.90;;;;;;5066567;28;20336;-64
2021/10/28 06:56:04;;;;;;;15.87;11.80;;;10.20;99.90;;;;;;5067368;28;20575;-64
2021/10/28 07:04:07;;;;;;;15.97;11.87;;;10.30;99.90;;;;;;5065427;28;20964;-64
2021/10/28 07:06:38;;;;;;;13.70;11.20;;;10.30;99.90;;;;;;5065895;28;20226;-63
2021/10/28 07:09:17;;;;;;;16.43;12.43;;;10.40;99.90;;;;;;5063517;28;21041;-64
2021/10/28 07:11:52;;;;;;;15.80;12.37;;;10.40;99.90;;;;;;5066244;28;20949;-64
2021/10/28 07:14:20;;;;;;;16.80;12.67;;;10.40;99.90;;;;;;5064710;28;20710;-64
2021/10/28 07:16:58;;;;;;;14.93;12.03;;;10.50;99.90;;;;;;5065835;28;20312;-64
2021/10/28 07:25:20;;;;;;;17.23;12.33;;;10.80;99.90;;;;;;5055093;28;20540;-64
2021/10/28 07:39:42;;;;;;;15.40;12.73;;;11.30;99.90;;;;;;5068135;28;20760;-64
2021/10/28 07:59:14;;;;;;;14.27;12.50;;;12.20;99.90;;;;;;5075945;28;20732;-64
2021/10/28 08:04:58;;;;;;;14.90;12.20;;;12.40;99.90;;;;;;5099752;28;20684;-64
2021/10/28 08:16:11;;;;;;;15.67;12.97;;;12.90;99.90;;;;;;5099884;28;20630;-65
2021/10/28 08:18:50;;;;;;;14.30;12.33;;;13.00;99.90;;;;;;5077996;28;20237;-64
2021/10/28 08:21:36;;;;;;;12.83;11.57;;;13.00;99.90;;;;;;5075971;28;20234;-64
2021/10/28 08:24:20;;;;;;;14.43;11.17;;;13.10;99.90;;;;;;5088051;28;20228;-64
2021/10/28 08:29:34;;;;;;;13.53;11.63;;;13.60;99.90;;;;;;5087369;28;20237;-64
2021/10/28 08:32:05;;;;;;;15.27;12.43;;;13.80;99.90;;;;;;5078859;28;20794;-65
2021/10/28 08:34:36;;;;;;;13.57;12.13;;;13.90;99.90;;;;;;5085432;28;20598;-64
2021/10/28 08:37:09;;;;;;;14.87;11.57;;;14.00;99.90;;;;;;5072684;28;20279;-64
2021/10/28 08:39:39;;;;;;;14.43;12.85;;;14.20;99.90;;;;;;5070265;28;20464;-62
2021/10/28 08:42:10;;;;;;;13.73;12.33;;;14.20;99.90;;;;;;5073454;28;20256;-63
2021/10/28 08:44:41;;;;;;;11.97;10.67;;;14.20;99.90;;;;;;5072329;28;20769;-63
2021/10/28 08:47:10;;;;;;;13.83;11.73;;;14.20;99.90;;;;;;5073221;28;20616;-63
2021/10/28 08:49:44;;;;;;;14.23;11.20;;;14.30;99.90;;;;;;5070509;28;20574;-63
2021/10/28 08:55:04;;;;;;;14.53;11.40;;;14.60;99.90;;;;;;5070971;28;20778;-63
2021/10/28 09:23:57;;;;;;;13.03;10.07;;;15.30;99.90;;;;;;5048989;28;20232;-64
2021/10/28 09:26:38;;;;;;;12.30;10.17;;;15.30;99.90;;;;;;5049584;28;20636;-64
2021/10/28 09:29:16;;;;;;;12.15;10.52;;;15.10;99.90;;;;;;5052249;28;20476;-63
2021/10/28 09:31:56;;;;;;;12.07;10.37;;;15.00;99.90;;;;;;5049355;28;20259;-63
2021/10/28 09:34:36;;;;;;;11.10;9.90;;;15.00;99.90;;;;;;5054277;28;20223;-63
2021/10/28 09:46:32;;;;;;;12.10;10.37;;;14.60;99.90;;;;;;5013283;28;20316;-63
2021/10/28 09:52:10;;;;;;;13.40;10.13;;;14.60;99.90;;;;;;5048490;28;20285;-63
2021/10/28 09:54:47;;;;;;;12.60;10.40;;;14.60;99.90;;;;;;5053792;28;20786;-63
2021/10/28 09:57:49;;;;;;;16.43;10.03;;;14.60;99.90;;;;;;5034791;28;20231;-63
2021/10/28 10:00:19;;;;;;;12.70;10.87;;;14.60;99.90;;;;;;5033935;28;20293;-63
2021/10/28 10:02:53;;;;;;;14.03;10.50;;;14.60;99.90;;;;;;5033989;28;20239;-63
2021/10/28 10:05:23;;;;;;;12.57;10.30;;;14.60;99.90;;;;;;5027777;28;20305;-63
2021/10/28 10:07:53;;;;;;;12.73;10.03;;;14.60;99.90;;;;;;5035663;28;20295;-64
2021/10/28 10:10:23;;;;;;;11.50;10.30;;;14.70;99.90;;;;;;5033994;28;20675;-63
2021/10/28 10:12:53;;;;;;;10.90;9.80;;;14.80;99.90;;;;;;5034202;28;20297;-63
2021/10/28 10:15:21;;;;;;;13.57;10.10;;;15.10;99.90;;;;;;5033986;28;20254;-63
2021/10/28 10:17:51;;;;;;;10.97;9.87;;;15.40;99.90;;;;;;5034164;28;21153;-63
2021/10/28 10:20:28;;;;;;;10.47;9.43;;;15.60;99.90;;;;;;5034000;28;20715;-63
2021/10/28 10:23:18;;;;;;;10.47;9.37;;;15.60;99.90;;;;;;5061825;28;20238;-63
2021/10/28 10:25:57;;;;;;;10.80;9.70;;;15.70;99.90;;;;;;5073928;28;20233;-63
2021/10/28 11:22:59;;;;;;;12.27;9.70;;;17.60;99.90;;;;;;5082136;28;20747;-63
2021/10/28 11:31:59;;;;;;;10.50;8.47;;;17.50;99.90;;;;;;5087839;28;20652;-63
2021/10/28 12:22:44;;;;;;;9.00;6.17;;;17.00;99.90;;;;;;5085737;28;20240;-63
2021/10/28 12:25:27;;;;;;;6.03;5.33;;;16.90;99.90;;;;;;5065286;28;20254;-63
2021/10/28 12:45:40;;;;;;;4.67;3.83;;;17.00;99.90;;;;;;5068909;28;20329;-63
2021/10/28 12:51:02;;;;;;;5.20;4.00;;;16.90;99.90;;;;;;5038153;28;20267;-63
2021/10/28 12:53:48;;;;;;;5.10;4.23;;;16.90;99.90;;;;;;5069983;28;20234;-63
2021/10/28 13:02:37;;;;;;;5.20;4.67;;;17.00;99.90;;;;;;5069596;28;20230;-63
2021/10/28 13:49:50;;;;;;;6.37;4.63;;;16.80;99.90;;;;;;5062834;28;20253;-64
2021/10/28 13:52:35;;;;;;;4.87;4.43;;;16.80;99.90;;;;;;5068576;28;20345;-64
2021/10/28 13:55:43;;;;;;;5.10;4.03;;;16.80;99.90;;;;;;5067612;28;20321;-64
2021/10/28 14:23:43;;;;;;;4.17;3.77;;;16.30;99.90;;;;;;5067709;28;20240;-63
2021/10/28 15:02:56;;;;;;;5.33;3.80;;;15.90;99.90;;;;;;5067136;28;20238;-64
2021/10/28 15:27:46;;;;;;;3.20;2.90;;;15.50;99.90;;;;;;5065549;28;20246;-64
2021/10/28 15:30:18;;;;;;;2.90;2.60;;;15.50;99.90;;;;;;5062594;28;20262;-64
2021/10/28 15:35:51;;;;;;;4.13;2.80;;;15.40;99.90;;;;;;5065600;28;20332;-63
2021/10/28 15:38:26;;;;;;;4.50;3.03;;;15.40;99.90;;;;;;5062619;28;20242;-63
2021/10/28 15:58:30;;;;;;;4.30;3.00;;;14.90;99.90;;;;;;5093630;28;20265;-64
2021/10/28 16:01:41;;;;;;;2.73;2.40;;;14.90;99.90;;;;;;5093611;28;20225;-64
2021/10/28 16:23:31;;;;;;;6.83;6.03;;;14.50;99.90;;;;;;5081610;28;20329;-64
2021/10/28 16:26:02;;;;;;;12.27;10.83;;;14.40;99.90;;;;;;5099096;28;20321;-64
2021/10/28 16:28:31;;;;;;;12.63;10.60;;;14.30;99.90;;;;;;5096896;28;20576;-64
2021/10/28 16:30:59;;;;;;;8.10;7.33;;;14.30;99.90;;;;;;5100567;28;20289;-64
2021/10/28 16:33:28;;;;;;;10.77;8.20;;;14.30;99.90;;;;;;5098407;28;20748;-64
2021/10/28 16:35:56;;;;;;;8.60;7.80;;;14.30;99.90;;;;;;5101890;28;20240;-64
2021/10/28 16:38:25;;;;;;;7.90;7.13;;;14.20;99.90;;;;;;5087861;28;20234;-64
2021/10/28 16:40:55;;;;;;;6.77;6.17;;;14.20;99.90;;;;;;5084632;28;20232;-65
2021/10/28 16:43:23;;;;;;;6.73;5.10;;;14.10;99.90;;;;;;5084800;28;20270;-64
2021/10/28 16:45:51;;;;;;;6.60;5.90;;;14.10;99.90;;;;;;5085443;28;20767;-64
2021/10/28 16:48:19;;;;;;;7.57;6.30;;;14.00;99.90;;;;;;5084598;28;20779;-64
2021/10/28 16:50:47;;;;;;;6.87;5.57;;;14.00;99.90;;;;;;5085811;28;20260;-64
2021/10/28 16:53:15;;;;;;;8.27;5.63;;;13.90;99.90;;;;;;5089952;28;20611;-64
2021/10/28 16:56:01;;;;;;;5.87;5.27;;;13.90;99.90;;;;;;5081864;28;20261;-64
2021/10/28 16:58:32;;;;;;;6.63;5.63;;;13.80;99.90;;;;;;5085205;28;20246;-64
2021/10/28 17:01:00;;;;;;;7.53;5.27;;;13.80;99.90;;;;;;5085744;28;20647;-64
2021/10/28 17:03:29;;;;;;;6.93;3.83;;;13.80;99.90;;;;;;5085013;28;20226;-64
2021/10/28 17:05:57;;;;;;;6.63;4.20;;;13.70;99.90;;;;;;5085262;28;20236;-64
2021/10/28 17:08:25;;;;;;;4.57;4.17;;;13.70;99.90;;;;;;5084884;28;20236;-64
2021/10/28 17:10:54;;;;;;;4.73;4.23;;;13.70;99.90;;;;;;5085166;28;20242;-64
2021/10/28 17:13:24;;;;;;;5.53;4.23;;;13.60;99.90;;;;;;5084567;28;20914;-65
2021/10/28 17:15:52;;;;;;;4.07;3.60;;;13.60;99.90;;;;;;5080572;28;20242;-64
2021/10/28 17:18:20;;;;;;;4.33;3.77;;;13.60;99.90;;;;;;5085127;28;20234;-64
2021/10/28 17:20:49;;;;;;;4.20;3.80;;;13.60;99.90;;;;;;5090320;28;20341;-64
2021/10/28 17:23:18;;;;;;;4.10;3.80;;;13.50;99.90;;;;;;5080796;28;20271;-64
2021/10/28 17:25:54;;;;;;;4.93;4.10;;;13.50;99.90;;;;;;5096397;28;20241;-64
2021/10/28 17:28:24;;;;;;;6.83;4.40;;;13.40;99.90;;;;;;5091856;28;20241;-64
2021/10/28 17:30:52;;;;;;;8.33;4.80;;;13.40;99.90;;;;;;5087357;28;20239;-64
2021/10/28 17:33:20;;;;;;;5.00;4.60;;;13.30;99.90;;;;;;5096948;28;20685;-64
2021/10/28 17:35:48;;;;;;;4.97;4.37;;;13.20;99.90;;;;;;5103135;28;20233;-64
2021/10/28 17:38:17;;;;;;;6.37;4.37;;;13.20;99.90;;;;;;5098770;28;20259;-64
2021/10/28 17:40:46;;;;;;;5.93;4.30;;;13.20;99.90;;;;;;5102286;28;20236;-64
2021/10/28 17:43:21;;;;;;;4.30;3.90;;;13.20;99.90;;;;;;5098591;28;20467;-64
2021/10/28 17:45:51;;;;;;;4.33;3.93;;;13.20;99.90;;;;;;5097656;28;20264;-64
2021/10/28 17:48:19;;;;;;;4.00;3.70;;;13.10;99.90;;;;;;5089113;28;20712;-64
2021/10/28 17:50:48;;;;;;;4.03;3.63;;;13.10;99.90;;;;;;5086442;28;20232;-64
2021/10/28 17:53:16;;;;;;;4.40;3.60;;;13.10;99.90;;;;;;5086419;28;20234;-64
2021/10/28 17:55:45;;;;;;;4.33;3.93;;;13.10;99.90;;;;;;5086483;28;21309;-64
2021/10/28 17:58:13;;;;;;;4.77;3.87;;;13.10;99.90;;;;;;5085606;28;20241;-64
2021/10/28 18:00:41;;;;;;;6.03;4.00;;;13.10;99.90;;;;;;5085598;28;20328;-64
2021/10/28 18:03:11;;;;;;;6.40;3.63;;;13.10;99.90;;;;;;5086215;28;20242;-64
2021/10/28 18:05:40;;;;;;;4.53;4.07;;;13.00;99.90;;;;;;5087037;28;20263;-64
2021/10/28 18:08:09;;;;;;;5.50;3.80;;;13.00;99.90;;;;;;5085585;28;20256;-63
2021/10/28 18:10:37;;;;;;;4.57;3.80;;;13.00;99.90;;;;;;5085798;28;20329;-64
2021/10/28 18:13:07;;;;;;;5.10;3.63;;;13.00;99.90;;;;;;5085993;28;20737;-64
2021/10/28 18:15:35;;;;;;;4.00;3.60;;;12.90;99.90;;;;;;5085589;28;20401;-64
2021/10/28 18:18:06;;;;;;;5.40;3.17;;;12.90;99.90;;;;;;5096981;28;20247;-64
2021/10/28 18:20:54;;;;;;;5.33;3.80;;;13.00;99.90;;;;;;5097600;28;20228;-64
2021/10/28 18:23:30;;;;;;;3.70;3.40;;;12.90;99.90;;;;;;5093898;28;20236;-65
2021/10/28 18:25:58;;;;;;;6.20;4.10;;;12.80;99.90;;;;;;5094885;28;20229;-64
2021/10/28 18:28:27;;;;;;;5.80;4.00;;;12.80;99.90;;;;;;5087924;28;20257;-64
2021/10/28 18:30:56;;;;;;;5.10;3.50;;;12.80;99.90;;;;;;5090011;28;20228;-64
2021/10/28 18:33:24;;;;;;;7.73;4.10;;;12.70;99.90;;;;;;5087834;28;20247;-64
2021/10/28 18:35:54;;;;;;;4.40;4.00;;;12.70;99.90;;;;;;5091061;28;20719;-65
2021/10/28 18:38:22;;;;;;;5.43;4.20;;;12.60;99.90;;;;;;5087783;28;20232;-64
2021/10/28 18:40:56;;;;;;;4.30;3.90;;;12.50;99.90;;;;;;5093017;28;20236;-64
2021/10/28 18:43:25;;;;;;;6.10;4.23;;;12.50;99.90;;;;;;5076633;28;20336;-64
2021/10/28 18:45:53;;;;;;;5.00;4.10;;;12.50;99.90;;;;;;5070033;28;20372;-64
2021/10/28 18:48:22;;;;;;;4.83;4.00;;;12.50;99.90;;;;;;5070159;28;20244;-65
2021/10/28 18:50:51;;;;;;;4.47;3.90;;;12.50;99.90;;;;;;5070417;28;20236;-64
2021/10/28 18:53:20;;;;;;;4.93;4.07;;;12.40;99.90;;;;;;5068603;28;20604;-64
2021/10/28 18:55:49;;;;;;;5.40;4.13;;;12.40;99.90;;;;;;5069577;28;20360;-64
2021/10/28 18:58:17;;;;;;;5.07;4.57;;;12.40;99.90;;;;;;5069643;28;20279;-64
2021/10/28 19:00:48;;;;;;;4.73;4.10;;;12.40;99.90;;;;;;5066184;28;20251;-64
2021/10/28 19:03:17;;;;;;;4.77;4.07;;;12.40;99.90;;;;;;5068330;28;20242;-64
2021/10/28 19:05:46;;;;;;;4.63;4.07;;;12.30;99.90;;;;;;5069443;28;20328;-65
2021/10/28 19:08:15;;;;;;;4.63;4.23;;;12.30;99.90;;;;;;5069418;28;20244;-64
2021/10/28 19:10:44;;;;;;;4.33;3.97;;;12.20;99.90;;;;;;5068561;28;20301;-64
2021/10/28 19:13:12;;;;;;;4.80;4.30;;;12.20;99.90;;;;;;5066953;28;20236;-64
2021/10/28 19:15:42;;;;;;;4.90;4.50;;;12.10;99.90;;;;;;5068206;28;20236;-64
2021/10/28 19:18:10;;;;;;;5.17;4.67;;;12.10;99.90;;;;;;5068874;28;20263;-64
2021/10/28 19:20:39;;;;;;;5.60;4.47;;;12.10;99.90;;;;;;5068395;28;20272;-64
2021/10/28 19:23:07;;;;;;;6.10;4.07;;;12.10;99.90;;;;;;5065999;28;20233;-64
2021/10/28 19:25:36;;;;;;;4.63;4.23;;;12.10;99.90;;;;;;5068144;28;20324;-64
2021/10/28 19:28:07;;;;;;;6.07;4.23;;;12.10;99.90;;;;;;5068736;28;20244;-64
2021/10/28 19:30:40;;;;;;;4.90;4.40;;;12.00;99.90;;;;;;5069063;28;20296;-64
2021/10/28 19:33:11;;;;;;;4.80;4.20;;;12.00;99.90;;;;;;5067382;28;20323;-64
2021/10/28 19:35:43;;;;;;;6.03;4.30;;;12.00;99.90;;;;;;5068797;28;20775;-64
2021/10/28 19:38:30;;;;;;;6.00;4.53;;;12.00;99.90;;;;;;5067950;28;20235;-64
2021/10/28 19:46:32;;;;;;;6.17;4.70;;;12.00;99.90;;;;;;5068281;28;20932;-64
2021/10/28 19:49:00;;;;;;;7.37;4.80;;;12.00;99.90;;;;;;5068390;28;20321;-64
2021/10/28 19:51:29;;;;;;;5.17;4.63;;;11.90;99.90;;;;;;5066056;28;20247;-64
2021/10/28 19:53:57;;;;;;;5.67;4.40;;;11.90;99.90;;;;;;5068226;28;20352;-64
2021/10/28 19:56:26;;;;;;;6.23;4.53;;;11.90;99.90;;;;;;5068344;28;20240;-64
2021/10/28 19:58:59;;;;;;;5.37;4.87;;;11.90;99.90;;;;;;5066200;28;20359;-65
2021/10/28 20:01:34;;;;;;;4.93;4.43;;;11.90;99.90;;;;;;5062741;28;20696;-64
2021/10/28 20:07:08;;;;;;;7.53;4.60;;;11.90;99.90;;;;;;5063780;28;21205;-64
2021/10/28 20:15:28;;;;;;;7.03;4.97;;;11.80;99.90;;;;;;5065567;28;20240;-66
2021/10/28 20:20:42;;;;;;;5.00;4.40;;;11.80;99.90;;;;;;5064670;28;20264;-64
2021/10/28 20:23:10;;;;;;;5.43;4.93;;;11.80;99.90;;;;;;5062861;28;20241;-64
2021/10/28 20:25:38;;;;;;;5.63;4.63;;;11.80;99.90;;;;;;5066073;28;20610;-64
2021/10/28 20:28:08;;;;;;;5.73;5.13;;;11.80;99.90;;;;;;5065209;28;20337;-64
2021/10/28 20:30:54;;;;;;;6.93;4.80;;;11.70;99.90;;;;;;5064909;28;20824;-64
2021/10/28 20:33:24;;;;;;;5.37;4.90;;;11.70;99.90;;;;;;5065546;28;20243;-64
2021/10/28 20:36:06;;;;;;;5.63;4.53;;;11.70;99.90;;;;;;5063867;28;20441;-64
2021/10/28 20:38:35;;;;;;;5.53;5.03;;;11.70;99.90;;;;;;5064316;28;20232;-64
2021/10/28 20:41:04;;;;;;;5.97;5.00;;;11.70;99.90;;;;;;5062744;28;20334;-65
2021/10/28 20:43:33;;;;;;;8.20;5.77;;;11.60;99.90;;;;;;5065085;28;20707;-63
2021/10/28 20:46:03;;;;;;;6.00;4.47;;;11.60;99.90;;;;;;5065196;28;20234;-64
2021/10/28 20:48:33;;;;;;;6.73;5.97;;;11.60;99.90;;;;;;5064647;28;20368;-64